Time;durP1;ratioP1;P1;durP2;ratioP2;P2;SDS_P1;SDS_P2;PMS_P1;PMS_P2;Temp;Humidity;BMP_temperature;BMP_pressure;BME280_temperature;BME280_humidity;BME280_pressure;Samples;Min_cycle;Max_cycle;Signal;HPM_P1;HPM_P2
2022/11/30 00:00:52;;;;;;;16.43;8.30;;;;;;;0.09;90.23;101179.98;1738683;81;21057;-77
2022/11/30 00:03:18;;;;;;;16.35;9.08;;;;;;;0.08;90.11;101174.38;1753219;81;21080;-78
2022/11/30 00:05:45;;;;;;;15.93;7.95;;;;;;;0.01;90.26;101176.02;1743852;81;21092;-78
2022/11/30 00:08:12;;;;;;;16.45;7.70;;;;;;;-0.06;90.43;101171.49;1737650;81;21070;-78
2022/11/30 00:10:39;;;;;;;13.55;7.20;;;;;;;-0.04;90.31;101164.44;1739333;81;21157;-77
2022/11/30 00:13:06;;;;;;;13.93;7.75;;;;;;;0.02;90.23;101170.73;1735961;82;21584;-81
2022/11/30 00:15:35;;;;;;;15.55;7.67;;;;;;;-0.01;90.24;101168.23;1731094;82;21033;-79
2022/11/30 00:18:02;;;;;;;13.68;7.20;;;;;;;-0.08;90.38;101169.41;1742872;81;21430;-80
2022/11/30 00:20:30;;;;;;;14.03;7.65;;;;;;;-0.09;90.29;101176.40;1747001;81;21010;-80
2022/11/30 00:22:57;;;;;;;15.13;7.80;;;;;;;-0.05;89.96;101167.52;1746132;81;21074;-79
2022/11/30 00:25:24;;;;;;;14.80;8.00;;;;;;;-0.08;90.15;101166.79;1730173;82;21025;-78
2022/11/30 00:27:51;;;;;;;14.13;8.08;;;;;;;-0.14;90.40;101172.28;1728962;82;21581;-77
2022/11/30 00:30:17;;;;;;;14.98;8.15;;;;;;;-0.21;90.56;101167.78;1708149;82;21047;-78
2022/11/30 00:32:44;;;;;;;18.20;8.95;;;;;;;-0.20;90.61;101166.85;1703959;83;21030;-77
2022/11/30 00:35:10;;;;;;;18.77;8.90;;;;;;;-0.22;90.86;101169.52;1707077;82;21104;-78
2022/11/30 00:37:37;;;;;;;17.07;9.28;;;;;;;-0.14;90.77;101170.51;1705644;82;21625;-77
2022/11/30 00:40:05;;;;;;;18.32;9.75;;;;;;;-0.10;90.46;101175.98;1720584;82;21053;-77
2022/11/30 00:42:32;;;;;;;25.45;9.70;;;;;;;-0.15;90.59;101172.75;1706370;82;21030;-77
2022/11/30 00:44:58;;;;;;;21.62;9.70;;;;;;;-0.22;90.84;101165.61;1724125;82;21009;-77
2022/11/30 00:47:25;;;;;;;21.10;8.78;;;;;;;-0.22;90.85;101166.06;1713579;82;21132;-76
2022/11/30 00:49:51;;;;;;;20.37;9.63;;;;;;;-0.12;90.49;101163.92;1716247;82;21025;-78
2022/11/30 00:52:17;;;;;;;22.90;10.63;;;;;;;-0.14;90.54;101167.05;1719387;82;21067;-80
2022/11/30 00:54:44;;;;;;;20.35;9.93;;;;;;;-0.20;90.81;101169.00;1715064;82;21558;-79
2022/11/30 00:57:11;;;;;;;18.67;8.85;;;;;;;-0.20;90.80;101162.94;1719905;82;21078;-79
2022/11/30 00:59:37;;;;;;;21.12;9.95;;;;;;;-0.11;90.43;101161.72;1732558;82;21110;-79
2022/11/30 01:02:03;;;;;;;17.25;9.43;;;;;;;-0.08;90.36;101161.56;1732806;82;21029;-80
2022/11/30 01:04:30;;;;;;;16.42;9.13;;;;;;;-0.11;90.67;101164.33;1732281;82;21013;-80
2022/11/30 01:06:57;;;;;;;17.55;8.05;;;;;;;-0.14;90.55;101156.61;1707932;82;21091;-80
2022/11/30 01:09:23;;;;;;;19.05;9.08;;;;;;;-0.11;90.27;101154.72;1718134;82;21074;-78
2022/11/30 01:11:50;;;;;;;16.62;9.98;;;;;;;-0.08;90.01;101153.73;1723994;82;21689;-80
2022/11/30 01:14:16;;;;;;;20.60;10.63;;;;;;;-0.11;90.28;101150.80;1725729;82;21033;-78
2022/11/30 01:16:44;;;;;;;19.40;10.23;;;;;;;-0.14;90.52;101150.08;1722136;82;20949;-80
2022/11/30 01:19:10;;;;;;;14.93;8.58;;;;;;;-0.11;90.58;101143.42;1702648;82;21013;-80
2022/11/30 01:21:37;;;;;;;16.45;8.93;;;;;;;0.03;90.21;101141.52;1720808;82;21081;-80
2022/11/30 01:24:05;;;;;;;16.40;10.13;;;;;;;0.03;90.19;101138.91;1683478;82;22430;-78
2022/11/30 01:26:32;;;;;;;17.85;9.83;;;;;;;-0.01;90.45;101136.42;1751203;82;20991;-78
2022/11/30 01:28:59;;;;;;;19.15;8.10;;;;;;;0.02;90.48;101136.77;1743227;81;21118;-77
2022/11/30 01:31:25;;;;;;;12.85;7.08;;;;;;;0.15;90.04;101135.75;1748746;81;21107;-78
2022/11/30 01:33:53;;;;;;;13.45;7.72;;;;;;;0.15;89.98;101133.14;1725462;83;21071;-79
2022/11/30 01:36:24;;;;;;;11.70;6.35;;;;;;;0.13;90.21;101129.28;1776658;80;22070;-77
2022/11/30 01:38:53;;;;;;;13.38;8.58;;;;;;;0.11;90.02;101129.80;1748654;80;21809;-79
2022/11/30 01:41:24;;;;;;;10.28;6.87;;;;;;;0.15;89.99;101135.75;1732199;81;21522;-78
2022/11/30 01:44:07;;;;;;;10.60;6.35;;;;;;;0.12;89.91;101127.59;1727910;81;21252;-76
2022/11/30 01:46:56;;;;;;;10.20;6.42;;;;;;;0.19;89.72;101130.34;1750087;82;20998;-80
2022/11/30 01:49:29;;;;;;;9.50;6.78;;;;;;;0.24;89.42;101126.20;1739003;81;21625;-79
2022/11/30 01:52:04;;;;;;;12.13;7.10;;;;;;;0.23;89.77;101128.88;1747617;81;21028;-78
2022/11/30 01:54:41;;;;;;;11.57;7.67;;;;;;;0.17;89.50;101126.95;1755217;81;21017;-80
2022/11/30 01:57:32;;;;;;;9.68;6.20;;;;;;;0.21;89.08;101128.10;1735412;82;20992;-79
2022/11/30 02:00:01;;;;;;;8.50;5.90;;;;;;;0.24;88.85;101130.59;1746355;81;21006;-79
2022/11/30 02:02:50;;;;;;;9.68;6.00;;;;;;;0.22;89.26;101132.43;1717272;82;21212;-78
2022/11/30 02:05:16;;;;;;;10.48;6.75;;;;;;;0.18;89.30;101131.71;1744564;81;21519;-80
2022/11/30 02:07:43;;;;;;;12.75;7.10;;;;;;;0.28;89.02;101132.98;1749834;81;21034;-78
2022/11/30 02:10:17;;;;;;;11.30;6.67;;;;;;;0.34;88.54;101133.18;1741135;81;21545;-82
2022/11/30 02:13:18;;;;;;;10.05;6.35;;;;;;;0.26;88.20;101138.75;1732242;81;21075;-77
2022/11/30 02:16:08;;;;;;;14.20;6.83;;;;;;;0.13;87.85;101142.34;1758607;80;21789;-80
2022/11/30 02:19:03;;;;;;;13.20;6.55;;;;;;;0.10;87.52;101144.27;1744313;80;21053;-77
2022/11/30 02:21:39;;;;;;;12.60;6.60;;;;;;;0.02;87.11;101145.03;1762596;80;21061;-78
2022/11/30 02:24:42;;;;;;;10.85;5.65;;;;;;;-0.02;87.15;101147.80;1754480;81;21054;-77
2022/11/30 02:27:40;;;;;;;9.78;5.85;;;;;;;-0.07;86.97;101148.44;1753433;81;21034;-77
2022/11/30 02:30:16;;;;;;;10.32;5.72;;;;;;;-0.09;86.90;101148.97;1736194;81;21093;-78
2022/11/30 02:33:00;;;;;;;10.85;6.35;;;;;;;-0.11;86.71;101140.81;1734021;81;21585;-77
2022/11/30 02:35:29;;;;;;;14.18;6.75;;;;;;;-0.16;86.46;101142.77;1725219;81;21168;-79
2022/11/30 02:37:56;;;;;;;10.60;6.05;;;;;;;-0.17;86.28;101137.12;1728296;81;21077;-81
2022/11/30 02:40:23;;;;;;;8.48;5.47;;;;;;;-0.23;86.19;101139.11;1715345;82;21056;-77
2022/11/30 02:42:51;;;;;;;9.88;5.78;;;;;;;-0.20;85.92;101135.05;1782594;80;21275;-79
2022/11/30 02:45:33;;;;;;;10.45;4.58;;;;;;;-0.23;85.57;101136.96;1730876;81;21062;-78
2022/11/30 02:48:08;;;;;;;10.65;5.17;;;;;;;-0.24;85.17;101140.47;1726688;81;21324;-78
2022/11/30 02:50:47;;;;;;;10.82;5.80;;;;;;;-0.33;84.74;101141.73;1761800;80;21042;-79
2022/11/30 02:53:14;;;;;;;12.43;6.75;;;;;;;-0.36;84.82;101150.98;1752870;81;21076;-80
2022/11/30 02:55:40;;;;;;;14.83;7.33;;;;;;;-0.41;84.86;101141.17;1748043;81;21093;-81
2022/11/30 02:58:07;;;;;;;13.08;6.33;;;;;;;-0.40;84.69;101144.19;1727206;81;21082;-80
2022/11/30 03:00:33;;;;;;;11.55;6.37;;;;;;;-0.44;84.75;101138.23;1733664;82;21099;-80
2022/11/30 03:03:00;;;;;;;14.05;6.65;;;;;;;-0.46;84.67;101147.90;1766454;80;21524;-80
2022/11/30 03:05:26;;;;;;;7.80;5.50;;;;;;;-0.47;84.73;101145.34;1735970;80;21012;-81
2022/11/30 03:07:53;;;;;;;14.13;5.87;;;;;;;-0.49;84.62;101145.41;1737724;81;21664;-80
2022/11/30 03:10:19;;;;;;;14.25;6.87;;;;;;;-0.50;84.61;101146.33;1747647;82;21038;-81
2022/11/30 03:12:46;;;;;;;16.80;6.47;;;;;;;-0.51;84.32;101153.75;1747474;81;21024;-78
2022/11/30 03:15:13;;;;;;;14.18;6.30;;;;;;;-0.50;84.32;101148.06;1749819;82;21541;-80
2022/11/30 03:17:39;;;;;;;15.05;5.87;;;;;;;-0.54;84.36;101153.90;1755506;81;21081;-79
2022/11/30 03:20:08;;;;;;;13.28;5.28;;;;;;;-0.53;84.50;101150.82;1760544;80;21489;-81
2022/11/30 03:22:34;;;;;;;12.98;5.78;;;;;;;-0.55;84.74;101150.04;1728749;82;21008;-78
2022/11/30 03:25:01;;;;;;;13.30;6.03;;;;;;;-0.51;84.70;101148.53;1728649;81;21135;-80
2022/11/30 03:27:27;;;;;;;13.68;6.42;;;;;;;-0.55;84.82;101142.20;1735789;81;20994;-79
2022/11/30 03:29:55;;;;;;;13.90;6.10;;;;;;;-0.55;84.80;101129.16;1743719;81;21041;-79
2022/11/30 03:32:22;;;;;;;12.40;6.00;;;;;;;-0.60;84.96;101128.02;1767487;81;21146;-78
2022/11/30 03:34:48;;;;;;;11.48;5.80;;;;;;;-0.55;85.11;101132.61;1743723;81;22406;-79
2022/11/30 03:39:06;;;;;;;11.70;5.70;;;;;;;-0.43;85.18;101133.39;1877520;76;22032;-79
2022/11/30 03:41:32;;;;;;;12.70;5.92;;;;;;;-0.46;84.96;101141.84;1850127;77;21006;-77
2022/11/30 03:43:59;;;;;;;10.88;5.92;;;;;;;-0.47;84.76;101145.34;1832680;76;21566;-79
2022/11/30 03:46:26;;;;;;;10.82;5.58;;;;;;;-0.49;84.61;101131.05;1851170;77;21591;-77
2022/11/30 03:48:53;;;;;;;11.30;5.47;;;;;;;-0.49;84.60;101127.59;1832979;77;20970;-78
2022/11/30 03:51:20;;;;;;;8.00;5.67;;;;;;;-0.49;84.52;101130.20;1852211;77;21533;-79
2022/11/30 03:53:46;;;;;;;11.05;5.90;;;;;;;-0.48;84.47;101130.61;1856682;76;20922;-76
2022/11/30 03:56:14;;;;;;;12.43;5.85;;;;;;;-0.49;84.64;101136.27;1811317;77;21090;-77
2022/11/30 03:58:41;;;;;;;8.00;5.12;;;;;;;-0.46;84.32;101140.53;1795703;78;20943;-77
2022/11/30 04:01:11;;;;;;;9.08;6.08;;;;;;;-0.51;84.25;101146.39;1784296;79;21555;-77
2022/11/30 04:03:38;;;;;;;11.38;5.50;;;;;;;-0.53;83.93;101135.16;1783099;79;21093;-77
2022/11/30 04:06:06;;;;;;;7.90;5.42;;;;;;;-0.60;84.08;101133.23;1799116;77;21053;-77
2022/11/30 04:08:33;;;;;;;9.85;5.10;;;;;;;-0.57;83.99;101127.06;1774375;78;21198;-77
2022/11/30 04:11:01;;;;;;;7.47;5.03;;;;;;;-0.63;84.00;101122.48;1802725;79;21039;-78
2022/11/30 04:13:28;;;;;;;7.80;5.35;;;;;;;-0.61;83.74;101130.25;1809022;79;21063;-78
2022/11/30 04:15:54;;;;;;;12.05;5.72;;;;;;;-0.69;83.57;101137.09;1793707;79;21018;-79
2022/11/30 04:18:22;;;;;;;8.33;4.60;;;;;;;-0.72;83.40;101137.20;1774784;79;21062;-80
2022/11/30 04:20:52;;;;;;;8.95;5.03;;;;;;;-0.77;83.45;101127.42;1766844;80;21867;-76
2022/11/30 04:23:20;;;;;;;7.87;4.28;;;;;;;-0.76;83.44;101129.10;1784425;79;21053;-79
2022/11/30 04:25:46;;;;;;;7.10;4.97;;;;;;;-0.80;83.61;101135.36;1796273;79;21515;-80
2022/11/30 04:28:14;;;;;;;9.03;5.37;;;;;;;-0.80;83.62;101151.02;1786096;80;20990;-81
2022/11/30 04:30:41;;;;;;;7.92;5.08;;;;;;;-0.85;83.71;101143.38;1786175;80;21018;-80
2022/11/30 04:33:07;;;;;;;6.90;4.65;;;;;;;-0.82;83.53;101137.18;1780526;79;21150;-79
2022/11/30 04:35:41;;;;;;;8.43;5.08;;;;;;;-0.85;83.57;101139.90;1786680;80;21057;-82
2022/11/30 04:38:08;;;;;;;8.60;4.80;;;;;;;-0.85;83.31;101143.38;1773529;79;21105;-79
2022/11/30 04:40:40;;;;;;;7.20;4.40;;;;;;;-0.90;83.08;101143.16;1780749;79;21021;-77
2022/11/30 04:43:07;;;;;;;7.37;4.28;;;;;;;-0.91;82.99;101147.52;1835020;76;21510;-79
2022/11/30 04:45:34;;;;;;;6.42;3.85;;;;;;;-0.93;82.81;101142.81;1788919;80;21509;-77
2022/11/30 04:48:02;;;;;;;8.30;4.42;;;;;;;-0.95;82.80;101143.79;1809228;79;21054;-78
2022/11/30 04:50:28;;;;;;;8.20;4.70;;;;;;;-0.97;82.74;101153.44;1788948;79;21517;-77
2022/11/30 04:52:55;;;;;;;6.22;3.70;;;;;;;-1.04;82.70;101148.92;1784076;80;21625;-77
2022/11/30 04:55:22;;;;;;;8.28;4.30;;;;;;;-1.04;82.55;101152.37;1787116;80;21084;-78
2022/11/30 04:57:49;;;;;;;9.28;4.90;;;;;;;-1.10;82.51;101156.53;1789493;80;21798;-77
2022/11/30 05:00:16;;;;;;;8.75;4.75;;;;;;;-1.07;82.58;101155.09;1788770;80;21025;-79
2022/11/30 05:02:43;;;;;;;9.50;4.62;;;;;;;-1.11;82.54;101159.19;1759923;79;21093;-80
2022/11/30 05:05:10;;;;;;;7.85;4.40;;;;;;;-1.14;82.62;101163.20;1780640;79;21018;-79
2022/11/30 05:07:39;;;;;;;7.55;4.65;;;;;;;-1.12;82.64;101166.61;1785749;80;21096;-77
2022/11/30 05:10:06;;;;;;;8.65;4.45;;;;;;;-1.17;82.66;101166.79;1809556;78;21176;-77
2022/11/30 05:12:33;;;;;;;8.23;4.85;;;;;;;-1.13;82.72;101174.05;1778373;78;22123;-77
2022/11/30 05:14:59;;;;;;;9.90;4.72;;;;;;;-1.15;82.74;101174.10;1797142;79;21018;-77
2022/11/30 05:17:26;;;;;;;6.55;4.67;;;;;;;-1.12;82.60;101168.78;1807125;79;21018;-77
2022/11/30 05:19:52;;;;;;;8.13;4.62;;;;;;;-1.16;82.59;101171.55;1805942;79;21129;-78
2022/11/30 05:22:18;;;;;;;6.55;4.10;;;;;;;-1.15;82.48;101176.70;1758483;80;22129;-77
2022/11/30 05:24:45;;;;;;;6.87;4.85;;;;;;;-1.20;82.55;101183.84;1778571;79;21006;-79
2022/11/30 05:27:12;;;;;;;9.28;5.15;;;;;;;-1.20;82.48;101182.54;1831761;77;21041;-78
2022/11/30 05:29:38;;;;;;;10.70;4.92;;;;;;;-1.20;82.49;101186.45;1815151;78;21042;-77
2022/11/30 05:32:05;;;;;;;7.83;4.47;;;;;;;-1.19;82.48;101186.86;1807068;78;21537;-77
2022/11/30 05:34:32;;;;;;;7.53;4.40;;;;;;;-1.18;82.32;101185.94;1829637;77;21135;-77
2022/11/30 05:36:59;;;;;;;8.58;4.55;;;;;;;-1.21;82.28;101192.59;1811333;76;21141;-76
2022/11/30 05:39:25;;;;;;;7.95;4.85;;;;;;;-1.20;82.36;101187.33;1827407;78;20979;-78
2022/11/30 05:41:52;;;;;;;8.73;5.03;;;;;;;-1.22;82.48;101185.23;1833534;77;21058;-79
2022/11/30 05:44:19;;;;;;;8.83;4.78;;;;;;;-1.19;82.50;101187.70;1828901;78;21581;-82
2022/11/30 05:46:45;;;;;;;9.10;5.53;;;;;;;-1.21;82.38;101195.20;1820923;78;21644;-81
2022/11/30 05:49:12;;;;;;;8.03;5.28;;;;;;;-1.17;82.45;101183.74;1826888;78;21057;-82
2022/11/30 05:51:39;;;;;;;9.08;5.35;;;;;;;-1.19;82.43;101189.01;1831396;78;21081;-81
2022/11/30 05:54:05;;;;;;;8.50;4.83;;;;;;;-1.14;82.37;101189.28;1831256;77;21042;-82
2022/11/30 05:56:32;;;;;;;8.80;4.87;;;;;;;-1.20;82.33;101184.72;1828449;78;21564;-80
2022/11/30 05:58:59;;;;;;;8.45;4.90;;;;;;;-1.18;82.26;101191.16;1828919;77;21262;-78
2022/11/30 06:01:27;;;;;;;9.30;5.37;;;;;;;-1.19;82.31;101192.92;1822491;77;21014;-76
2022/11/30 06:03:55;;;;;;;10.63;5.28;;;;;;;-1.19;82.11;101192.08;1814450;78;21029;-75
2022/11/30 06:06:21;;;;;;;9.25;5.12;;;;;;;-1.20;82.19;101199.06;1810657;78;21050;-74
2022/11/30 06:08:48;;;;;;;10.48;6.70;;;;;;;-1.22;82.27;101201.31;1830520;78;21015;-74
2022/11/30 06:11:15;;;;;;;9.15;5.28;;;;;;;-1.19;82.23;101198.59;1825456;78;21241;-74
2022/11/30 06:13:41;;;;;;;8.75;5.50;;;;;;;-1.21;82.22;101195.20;1832917;77;20985;-75
2022/11/30 06:16:09;;;;;;;10.82;6.05;;;;;;;-1.17;82.03;101196.78;1826228;78;21051;-75
2022/11/30 06:18:36;;;;;;;10.55;6.40;;;;;;;-1.20;82.12;101191.23;1827292;77;21078;-74
2022/11/30 06:21:05;;;;;;;8.53;5.55;;;;;;;-1.14;82.36;101186.67;1826795;76;20979;-76
2022/11/30 06:23:32;;;;;;;8.25;5.05;;;;;;;-1.16;82.31;101181.52;1832387;77;21200;-74
2022/11/30 06:26:00;;;;;;;7.50;5.28;;;;;;;-1.15;81.90;101188.45;1802856;77;21064;-73
2022/11/30 06:28:27;;;;;;;9.30;5.65;;;;;;;-1.17;81.85;101175.08;1819449;78;21095;-74
2022/11/30 06:30:59;;;;;;;8.23;5.05;;;;;;;-1.19;81.97;101165.54;1822101;78;20990;-74
2022/11/30 06:33:26;;;;;;;10.38;5.33;;;;;;;-1.17;81.92;101175.92;1820317;78;21081;-74
2022/11/30 06:35:52;;;;;;;11.73;4.95;;;;;;;-1.19;81.75;101188.17;1821179;78;21247;-75
2022/11/30 06:38:19;;;;;;;8.03;4.62;;;;;;;-1.19;81.86;101189.47;1830366;77;21080;-76
2022/11/30 06:40:46;;;;;;;7.53;5.10;;;;;;;-1.21;81.60;101196.05;1825133;77;21067;-75
2022/11/30 06:43:12;;;;;;;7.83;4.85;;;;;;;-1.16;81.88;101201.08;1835781;77;20994;-75
2022/11/30 06:45:43;;;;;;;7.87;5.65;;;;;;;-1.19;81.82;101207.73;1829362;77;21053;-76
2022/11/30 06:48:10;;;;;;;7.72;4.47;;;;;;;-1.18;81.73;101212.02;1848559;77;21399;-74
2022/11/30 06:50:37;;;;;;;10.80;4.83;;;;;;;-1.19;81.66;101212.94;1861233;76;20982;-74
2022/11/30 06:53:04;;;;;;;10.68;6.37;;;;;;;-1.16;82.07;101227.16;1846938;77;21384;-75
2022/11/30 06:55:34;;;;;;;10.03;5.70;;;;;;;-1.22;81.97;101242.60;1849093;77;21041;-74
2022/11/30 06:58:08;;;;;;;10.65;5.78;;;;;;;-1.22;82.10;101236.08;1848194;77;21080;-74
2022/11/30 07:00:35;;;;;;;9.18;5.60;;;;;;;-1.23;82.13;101242.19;1837818;77;21128;-72
2022/11/30 07:03:03;;;;;;;7.83;5.50;;;;;;;-1.21;82.20;101233.02;1840862;76;21005;-74
2022/11/30 07:05:34;;;;;;;10.08;6.08;;;;;;;-1.22;82.35;101231.30;1828855;77;21569;-74
2022/11/30 07:08:00;;;;;;;9.58;6.00;;;;;;;-1.20;82.48;101230.78;1830320;77;21445;-75
2022/11/30 07:10:26;;;;;;;9.85;5.80;;;;;;;-1.17;82.58;101236.36;1845559;76;21108;-73
2022/11/30 07:12:54;;;;;;;14.25;7.47;;;;;;;-1.16;82.58;101232.83;1821008;77;21139;-75
2022/11/30 07:15:21;;;;;;;9.38;5.40;;;;;;;-1.11;82.59;101235.67;1847985;77;21485;-73
2022/11/30 07:17:47;;;;;;;9.20;5.62;;;;;;;-1.10;82.45;101237.81;1835547;77;21096;-75
2022/11/30 07:20:14;;;;;;;8.40;5.87;;;;;;;-1.06;82.61;101238.97;1844913;77;21037;-75
2022/11/30 07:22:40;;;;;;;11.22;5.35;;;;;;;-1.03;82.69;101224.48;1840312;76;21485;-73
2022/11/30 07:27:54;;;;;;;8.80;6.15;;;;;;;-0.95;82.45;101228.58;1817571;76;21025;-75
2022/11/30 07:30:21;;;;;;;13.83;7.25;;;;;;;-0.90;82.34;101234.48;1769469;80;21092;-75
2022/11/30 07:32:48;;;;;;;9.63;6.95;;;;;;;-0.93;82.33;101231.98;1848345;77;21036;-74
2022/11/30 07:35:14;;;;;;;15.53;8.20;;;;;;;-0.92;82.31;101229.78;1841363;77;20997;-76
2022/11/30 07:37:41;;;;;;;14.15;9.00;;;;;;;-0.93;82.30;101230.67;1838265;77;21202;-74
2022/11/30 07:40:08;;;;;;;11.63;7.25;;;;;;;-0.91;82.10;101224.48;1830031;76;21064;-74
2022/11/30 07:42:35;;;;;;;11.20;8.13;;;;;;;-0.91;81.96;101224.48;1821826;78;21057;-75
2022/11/30 07:45:01;;;;;;;9.60;6.08;;;;;;;-0.91;81.86;101231.00;1837565;78;21061;-74
2022/11/30 07:47:28;;;;;;;9.70;5.95;;;;;;;-0.89;81.57;101237.47;1838775;78;21128;-74
2022/11/30 07:49:54;;;;;;;10.03;6.33;;;;;;;-0.94;81.40;101239.42;1842592;77;21116;-74
2022/11/30 07:52:21;;;;;;;11.28;6.60;;;;;;;-0.92;81.24;101242.83;1830280;77;21715;-74
2022/11/30 07:54:48;;;;;;;10.03;6.62;;;;;;;-0.97;81.18;101244.28;1832497;76;21093;-74
2022/11/30 07:57:14;;;;;;;9.88;5.78;;;;;;;-0.97;81.10;101236.45;1829563;77;21014;-74
2022/11/30 07:59:41;;;;;;;9.05;5.85;;;;;;;-0.97;81.02;101242.13;1832380;77;21029;-74
2022/11/30 08:02:09;;;;;;;11.00;6.80;;;;;;;-1.00;80.95;101243.95;1838680;77;21117;-76
2022/11/30 08:04:36;;;;;;;9.33;6.25;;;;;;;-0.97;81.08;101244.74;1818965;76;21017;-73
2022/11/30 08:07:02;;;;;;;12.88;7.12;;;;;;;-1.01;81.12;101244.84;1814157;77;21002;-76
2022/11/30 08:09:29;;;;;;;11.08;6.85;;;;;;;-0.96;81.02;101239.47;1823428;78;20982;-75
2022/11/30 08:11:56;;;;;;;10.05;6.97;;;;;;;-1.01;81.00;101244.84;1835466;78;21545;-74
2022/11/30 08:14:22;;;;;;;10.20;6.92;;;;;;;-0.98;80.90;101235.23;1836733;77;21773;-75
2022/11/30 08:16:49;;;;;;;17.27;7.90;;;;;;;-1.03;80.88;101251.03;1821021;77;21019;-74
2022/11/30 08:19:15;;;;;;;9.13;6.60;;;;;;;-1.01;80.77;101247.45;1835809;78;20998;-75
2022/11/30 08:21:42;;;;;;;13.35;6.20;;;;;;;-1.05;81.36;101248.48;1830029;78;21045;-75
2022/11/30 08:24:10;;;;;;;11.90;6.33;;;;;;;-1.03;81.12;101240.60;1807542;77;21081;-76
2022/11/30 08:26:37;;;;;;;9.45;6.78;;;;;;;-1.06;80.82;101240.27;1800009;77;21097;-73
2022/11/30 08:29:03;;;;;;;10.45;6.30;;;;;;;-1.01;80.72;101230.50;1824646;76;21052;-75
2022/11/30 08:31:32;;;;;;;10.35;6.58;;;;;;;-1.03;79.65;101223.19;1840257;77;21038;-75
2022/11/30 08:34:04;;;;;;;11.50;7.08;;;;;;;-1.01;80.10;101220.06;1838715;77;21049;-75
2022/11/30 08:36:31;;;;;;;9.80;6.42;;;;;;;-1.02;80.20;101220.98;1819859;77;21017;-75
2022/11/30 08:38:58;;;;;;;11.35;7.55;;;;;;;-0.96;80.25;101213.84;1817689;77;22444;-74
2022/11/30 08:41:25;;;;;;;13.35;7.70;;;;;;;-0.93;80.51;101212.41;1805219;78;21093;-78
2022/11/30 08:43:51;;;;;;;12.75;8.23;;;;;;;-0.82;80.66;101203.72;1814312;77;21026;-77
2022/11/30 08:46:19;;;;;;;11.22;8.73;;;;;;;-0.77;80.58;101214.84;1807045;77;21009;-77
2022/11/30 08:48:46;;;;;;;12.43;8.63;;;;;;;-0.72;80.48;101218.56;1813323;77;21540;-77
2022/11/30 08:51:14;;;;;;;13.70;9.30;;;;;;;-0.71;80.38;101218.52;1813767;77;21049;-76
2022/11/30 08:53:41;;;;;;;12.37;7.87;;;;;;;-0.71;80.11;101222.42;1819475;78;20974;-77
2022/11/30 08:56:15;;;;;;;13.43;9.03;;;;;;;-0.77;80.35;101220.06;1806531;77;21285;-76
2022/11/30 08:58:42;;;;;;;13.48;8.20;;;;;;;-0.73;80.24;101216.88;1811945;77;21596;-77
2022/11/30 09:01:16;;;;;;;11.80;7.25;;;;;;;-0.77;80.26;101213.53;1816785;77;21069;-77
2022/11/30 09:03:43;;;;;;;11.22;7.05;;;;;;;-0.74;80.06;101217.78;1824633;77;21513;-84
2022/11/30 09:06:17;;;;;;;10.15;7.35;;;;;;;-0.78;79.96;101217.50;1808464;78;20997;-80
2022/11/30 09:08:45;;;;;;;12.18;6.90;;;;;;;-0.78;79.73;101220.11;1827921;77;21061;-77
2022/11/30 09:11:15;;;;;;;10.88;7.42;;;;;;;-0.87;79.72;101219.56;1829221;77;21026;-77
2022/11/30 09:13:42;;;;;;;10.28;6.70;;;;;;;-0.88;79.63;101209.18;1823582;77;21557;-81
2022/11/30 09:16:08;;;;;;;11.93;7.45;;;;;;;-0.96;79.73;101212.08;1831720;77;21081;-81
2022/11/30 09:18:35;;;;;;;11.12;7.53;;;;;;;-0.95;79.85;101214.23;1818840;77;21021;-79
2022/11/30 09:21:04;;;;;;;11.88;8.25;;;;;;;-1.02;80.04;101217.54;1824757;77;21484;-80
2022/11/30 09:23:31;;;;;;;9.45;7.12;;;;;;;-1.00;79.99;101217.02;1815401;77;20990;-79
2022/11/30 09:26:00;;;;;;;11.65;7.33;;;;;;;-1.03;79.90;101214.52;1809230;76;21020;-81
2022/11/30 09:28:29;;;;;;;11.03;7.50;;;;;;;-1.01;79.92;101218.76;1823635;78;21593;-80
2022/11/30 09:31:15;;;;;;;12.30;7.67;;;;;;;-1.05;80.12;101217.17;1808772;78;21062;-81
2022/11/30 09:33:42;;;;;;;13.58;7.58;;;;;;;-1.01;80.05;101217.45;1822609;77;21344;-81
2022/11/30 09:36:11;;;;;;;10.90;7.55;;;;;;;-1.03;80.08;101219.27;1824726;78;21024;-79
2022/11/30 09:38:37;;;;;;;10.43;7.85;;;;;;;-1.04;79.91;101222.80;1826077;77;20991;-83
2022/11/30 09:41:29;;;;;;;11.22;7.70;;;;;;;-1.03;79.95;101217.13;1822190;76;21250;-80
2022/11/30 09:44:04;;;;;;;13.30;9.00;;;;;;;-1.04;79.96;101217.59;1813209;77;20994;-76
2022/11/30 09:46:55;;;;;;;11.88;8.43;;;;;;;-1.03;80.05;101217.97;1826223;77;21057;-77
2022/11/30 09:49:26;;;;;;;15.72;9.20;;;;;;;-1.03;80.29;101213.21;1799524;78;21619;-76
2022/11/30 09:51:53;;;;;;;11.97;8.65;;;;;;;-0.96;80.36;101207.33;1845083;77;21148;-82
2022/11/30 09:54:34;;;;;;;16.17;9.13;;;;;;;-0.92;80.32;101212.36;1835226;76;21132;-80
2022/11/30 09:56:57;;;;;;;13.03;7.70;;;;;;;-0.91;79.90;101202.77;1837467;77;21498;-76
2022/11/30 09:59:28;;;;;;;12.28;8.33;;;;;;;-0.88;79.62;101211.33;1831148;76;20990;-75
2022/11/30 10:01:55;;;;;;;13.30;8.68;;;;;;;-0.92;79.48;101208.91;1834011;77;21037;-78
2022/11/30 10:04:27;;;;;;;14.93;9.08;;;;;;;-0.88;79.39;101201.35;1837646;77;21065;-76
2022/11/30 10:07:32;;;;;;;12.60;7.70;;;;;;;-0.86;79.62;101192.55;1842437;76;21259;-74
2022/11/30 10:10:25;;;;;;;12.25;7.33;;;;;;;-0.75;79.45;101192.14;1842443;76;25830;-76
2022/11/30 10:13:03;;;;;;;11.33;7.22;;;;;;;-0.71;79.07;101187.19;1839034;77;21037;-73
2022/11/30 10:15:56;;;;;;;13.03;8.20;;;;;;;-0.70;78.81;101193.25;1828811;77;21073;-78
2022/11/30 10:18:34;;;;;;;15.48;7.67;;;;;;;-0.69;78.57;101178.00;1844652;77;21001;-80
2022/11/30 10:21:24;;;;;;;12.45;7.95;;;;;;;-0.70;78.73;101173.22;1837301;76;21247;-79
2022/11/30 10:24:21;;;;;;;12.90;6.92;;;;;;;-0.65;77.85;101171.28;1846975;77;20990;-77
2022/11/30 10:26:54;;;;;;;14.50;7.60;;;;;;;-0.68;78.05;101167.48;1841461;76;21505;-79
2022/11/30 10:29:38;;;;;;;12.85;7.60;;;;;;;-0.67;78.29;101169.19;1837353;77;21006;-78
2022/11/30 10:32:23;;;;;;;15.35;8.50;;;;;;;-0.55;78.48;101171.77;1842173;76;21500;-77
2022/11/30 10:34:53;;;;;;;14.00;8.33;;;;;;;-0.51;78.28;101172.03;1833010;76;21147;-81
2022/11/30 10:37:29;;;;;;;17.15;9.20;;;;;;;-0.43;77.62;101172.56;1832965;77;21063;-79
2022/11/30 10:40:12;;;;;;;14.25;9.05;;;;;;;-0.46;77.56;101170.55;1830715;77;21038;-77
2022/11/30 10:43:07;;;;;;;13.28;8.68;;;;;;;-0.49;77.58;101166.75;1800458;77;21561;-78
2022/11/30 10:45:34;;;;;;;17.32;9.03;;;;;;;-0.49;77.55;101157.61;1798935;79;21116;-79
2022/11/30 10:48:06;;;;;;;15.28;9.05;;;;;;;-0.50;77.63;101161.12;1798666;79;21139;-77
2022/11/30 10:50:32;;;;;;;11.88;8.65;;;;;;;-0.50;77.59;101156.77;1797109;78;21581;-72
2022/11/30 10:52:59;;;;;;;13.30;9.13;;;;;;;-0.48;78.06;101161.47;1800904;78;21682;-77
2022/11/30 10:55:34;;;;;;;11.20;7.75;;;;;;;-0.44;78.15;101160.89;1794514;77;21194;-75
2022/11/30 10:58:12;;;;;;;13.20;8.90;;;;;;;-0.44;77.94;101169.57;1791098;78;21069;-79
2022/11/30 11:00:38;;;;;;;16.15;9.30;;;;;;;-0.42;77.90;101167.75;1730096;80;21282;-75
2022/11/30 11:03:22;;;;;;;11.33;7.17;;;;;;;-0.48;77.50;101171.08;1768295;79;21672;-78
2022/11/30 11:06:15;;;;;;;11.68;7.72;;;;;;;-0.49;77.68;101178.03;1754163;80;21093;-78
2022/11/30 11:08:44;;;;;;;15.65;8.58;;;;;;;-0.52;77.55;101162.52;1763014;79;21013;-76
2022/11/30 11:11:33;;;;;;;12.07;7.50;;;;;;;-0.55;77.31;101160.48;1811695;79;21101;-78
2022/11/30 11:14:17;;;;;;;14.15;8.05;;;;;;;-0.64;77.61;101165.17;1811487;78;21214;-77
2022/11/30 11:17:01;;;;;;;11.05;7.25;;;;;;;-0.70;77.77;101171.07;1803599;78;21518;-80
2022/11/30 11:19:37;;;;;;;11.70;7.58;;;;;;;-0.71;77.97;101170.69;1810765;78;21026;-77
2022/11/30 11:22:15;;;;;;;13.98;8.23;;;;;;;-0.75;77.87;101171.70;1812115;77;22129;-77
2022/11/30 11:24:41;;;;;;;12.18;7.92;;;;;;;-0.75;77.65;101176.92;1734065;80;21092;-82
2022/11/30 11:27:30;;;;;;;12.33;7.95;;;;;;;-0.81;77.75;101171.52;1806070;77;21110;-79
2022/11/30 11:30:05;;;;;;;16.07;8.13;;;;;;;-0.81;77.88;101176.27;1796739;77;21030;-78
2022/11/30 11:32:31;;;;;;;14.00;8.53;;;;;;;-0.84;78.08;101166.40;1784701;77;21089;-81
2022/11/30 11:34:58;;;;;;;17.52;8.48;;;;;;;-0.75;78.54;101173.88;1798167;77;21049;-74
2022/11/30 11:37:30;;;;;;;13.13;7.75;;;;;;;-0.69;78.40;101173.63;1800024;77;21062;-79